Detall de PIREP

Printer-friendly versionPDF version

[2012/08/02 21:28:00]
Flight IATA:CT3124
Pilot Number:026
Company ICAO:CAT
Aircraft Type:DC85/A
PAX:0
Aircraft Registration:CARGO
Departing Airport: LFMP
Destination Airport: LEVC
Alternate Airport:LEIB
Online: VATSIM
Route:BGR H110 GIR B38 SLL B31 BCN B28 SOPET
Flight Level:F190
No Slew and time accel
No pause
Crash detect
Detect pilot in Cockpit between each 30 and 45 minutes
21:28 Zero fuel Weight: 187230 Lbs, Fuel Weight: 27202 Lbs
21:28 VATSIM:LFMP 022100Z AUTO 31012KT 9999 FEW086 27/14 Q1016
21:28 VATSIM:LEVC 022100Z VRB02KT CAVOK 26/21 Q1015 NOSIG
21:28 VOICE CATALONIAN / IATA CT3124 INTERHUB ROUTE
21:32 Parking Brakes off
21:40 Take-off
21:40 Take off Weight: 213492 Lbs
21:40 Wind: 312º @ 012 Knots Heading: 326º
21:40 POS N42º 45´ 08´´ E002º 51´ 46´´
21:40 Flaps:2 at 180 Knots
21:40 Gear Up: 189 Knots
21:41 Flaps:1 at 227 Knots
21:42 Flaps:0 at 242 Knots
21:50 TOC
21:50 Fuel Weight: 22929 Lb
21:55 Wind:317º@009 Knots Heading: 264º Ground Speed: 415 Knots Altitude 19045 ft
22:10 Wind:319º@009 Knots Heading: 228º Ground Speed: 422 Knots Altitude 19074 ft
22:15 TOD
22:15 Fuel Weight: 17402 Lb
22:25 Wind:291º@009 Knots Heading: 186º Ground Speed: 283 Knots Altitude 6069 ft
22:29 Gear Down: 226 Knots
22:29 Flaps:1 at 214 Knots
22:29 Flaps:2 at 213 Knots
22:29 Flaps:3 at 187 Knots
22:30 Flaps:4 at 160 Knots
22:31 Flaps:5 at 158 Knots
22:31 TouchDown:Rate -135 ft/min Speed: 136 Knots
22:32 VATSIM:LEVC 022200Z VRB01KT CAVOK 26/21 Q1015 NOSIG
22:32 Land
22:32 Wind:276º@003 Knots
22:32 Heading: 297º
22:32 Flight Duration: 00:52
22:32 Landing Weight: 202898 Lbs
22:32 POS N39º 29´ 38´´ W000º 29´ 37´´
22:38 Parking brakes on
22:38 Block to Block Duration: 01:06
22:38 Final Fuel: 15066 Lbls
22:38 Spent Fuel: 12136 Lbls
22:38 Flight Length: 321 NM
22:38 TOD Land Length: 85 NM

Exportar CSV

Powered by Drupal - Modified by Danger4k